createdAt,value
2022-10-13T00:01:18.429Z,98961.88
2022-10-13T00:03:46.988Z,98957.19
2022-10-13T00:06:18.636Z,98954.78
2022-10-13T00:08:48.987Z,98952.41
2022-10-13T00:11:22.676Z,98952.78
2022-10-13T00:13:50.615Z,98952.00
2022-10-13T00:16:20.516Z,98951.81
2022-10-13T00:18:47.151Z,98953.84
2022-10-13T00:21:21.372Z,98956.38
2022-10-13T00:23:48.244Z,98954.97
2022-10-13T00:26:24.934Z,98946.66
2022-10-13T00:28:52.768Z,98949.50
2022-10-13T00:31:26.555Z,98952.72
2022-10-13T00:33:53.498Z,98956.34
2022-10-13T00:36:22.087Z,98961.28
2022-10-13T00:38:48.729Z,98965.38
2022-10-13T00:41:15.572Z,98956.75
2022-10-13T00:43:50.104Z,98954.75
2022-10-13T00:46:16.943Z,98951.34
2022-10-13T00:48:46.851Z,98950.09
2022-10-13T00:51:17.926Z,98949.97
2022-10-13T00:53:47.855Z,98953.34
2022-10-13T00:56:19.730Z,98948.81
2022-10-13T00:58:48.663Z,98941.25
2022-10-13T01:01:15.313Z,98950.31
2022-10-13T01:03:42.243Z,98943.22
2022-10-13T01:06:09.598Z,98941.63
2022-10-13T01:08:36.279Z,98936.22
2022-10-13T01:11:22.666Z,98935.59
2022-10-13T01:14:11.040Z,98929.38
2022-10-13T01:17:01.857Z,98930.00
2022-10-13T01:20:15.200Z,98927.94
2022-10-13T01:23:12.299Z,98926.81
2022-10-13T01:26:09.610Z,98920.25
2022-10-13T01:29:06.776Z,98921.28
2022-10-13T01:32:02.155Z,98917.72
2022-10-13T01:34:52.896Z,98921.66
2022-10-13T01:37:49.271Z,98917.06
2022-10-13T01:40:25.454Z,98916.75
2022-10-13T01:43:16.641Z,98912.16
2022-10-13T01:45:53.790Z,98902.56
2022-10-13T01:48:20.419Z,98901.56
2022-10-13T01:50:48.556Z,98896.22
2022-10-13T01:53:18.243Z,98892.38
2022-10-13T01:55:54.749Z,98892.66
2022-10-13T01:58:23.407Z,98881.47
2022-10-13T02:01:22.230Z,98892.25
2022-10-13T02:04:34.306Z,98888.63
2022-10-13T02:07:23.638Z,98876.81
2022-10-13T02:10:15.450Z,98878.72
2022-10-13T02:12:54.984Z,98872.72
2022-10-13T02:15:34.080Z,98866.34
2022-10-13T02:18:03.804Z,98873.38
2022-10-13T02:20:31.822Z,98863.25
2022-10-13T02:23:07.149Z,98855.63
2022-10-13T02:25:35.582Z,98851.56
2022-10-13T02:28:03.046Z,98855.56
2022-10-13T02:30:33.045Z,98846.81
2022-10-13T02:33:01.494Z,98855.56
2022-10-13T02:35:30.917Z,98855.88
2022-10-13T02:37:57.375Z,98855.25
2022-10-13T02:40:24.562Z,98864.94
2022-10-13T02:42:51.102Z,98859.84
2022-10-13T02:45:17.530Z,98861.69
2022-10-13T02:47:44.146Z,98851.22
2022-10-13T02:50:11.335Z,98853.31
2022-10-13T02:52:38.087Z,98853.28
2022-10-13T02:55:05.657Z,98852.56
2022-10-13T02:57:32.350Z,98852.09
2022-10-13T02:59:58.893Z,98848.50
2022-10-13T03:02:28.241Z,98851.84
2022-10-13T03:04:54.860Z,98859.44
2022-10-13T03:07:21.554Z,98849.13
2022-10-13T03:09:48.081Z,98848.41
2022-10-13T03:12:14.579Z,98856.56
2022-10-13T03:14:41.045Z,98855.72
2022-10-13T03:17:12.448Z,98860.19
2022-10-13T03:19:39.891Z,98869.44
2022-10-13T03:22:06.402Z,98864.56
2022-10-13T03:24:32.844Z,98871.34
2022-10-13T03:26:59.280Z,98875.13
2022-10-13T03:29:26.037Z,98870.75
2022-10-13T03:31:52.518Z,98869.19
2022-10-13T03:34:20.196Z,98870.75
2022-10-13T03:36:46.836Z,98875.50
2022-10-13T03:39:13.692Z,98876.44
2022-10-13T03:41:40.388Z,98874.78
2022-10-13T03:44:07.517Z,98879.44
2022-10-13T03:46:34.299Z,98873.75
2022-10-13T03:49:00.879Z,98864.50
2022-10-13T03:51:27.389Z,98871.00
2022-10-13T03:53:54.253Z,98873.13
2022-10-13T03:56:27.022Z,98871.91
2022-10-13T03:58:57.495Z,98869.66
2022-10-13T04:01:28.397Z,98869.59
2022-10-13T04:03:56.371Z,98858.69
2022-10-13T04:06:25.399Z,98865.69
2022-10-13T04:08:52.359Z,98857.66
2022-10-13T04:11:19.855Z,98854.97
2022-10-13T04:13:46.418Z,98851.25
2022-10-13T04:16:25.855Z,98854.69
2022-10-13T04:18:59.850Z,98857.53
2022-10-13T04:21:27.993Z,98850.88
2022-10-13T04:24:00.013Z,98845.97
2022-10-13T04:26:31.118Z,98835.63
2022-10-13T04:28:57.641Z,98832.44
2022-10-13T04:31:25.063Z,98829.50
2022-10-13T04:33:51.735Z,98823.00
2022-10-13T04:36:19.536Z,98825.94
2022-10-13T04:38:46.834Z,98815.00
2022-10-13T04:41:16.897Z,98816.13
2022-10-13T04:43:44.035Z,98817.91
2022-10-13T04:46:16.146Z,98820.34
2022-10-13T04:48:42.584Z,98813.63
2022-10-13T04:51:14.179Z,98807.78
2022-10-13T04:53:41.131Z,98819.00
2022-10-13T04:56:12.182Z,98817.47
2022-10-13T04:58:40.699Z,98813.25
2022-10-13T05:01:16.409Z,98813.69
2022-10-13T05:03:45.909Z,98813.06
2022-10-13T05:06:18.659Z,98803.78
2022-10-13T05:08:45.223Z,98805.19
2022-10-13T05:11:11.897Z,98808.88
2022-10-13T05:13:38.939Z,98803.13
2022-10-13T05:16:11.259Z,98796.09
2022-10-13T05:18:37.896Z,98786.66
2022-10-13T05:21:23.741Z,98790.03
2022-10-13T05:23:54.195Z,98791.25
2022-10-13T05:26:21.928Z,98791.94
2022-10-13T05:28:49.131Z,98794.31
2022-10-13T05:31:25.373Z,98794.28
2022-10-13T05:33:53.080Z,98793.44
2022-10-13T05:36:34.865Z,98781.88
2022-10-13T05:39:05.679Z,98788.06
2022-10-13T05:41:32.954Z,98785.31
2022-10-13T05:44:09.638Z,98802.81
2022-10-13T05:46:36.485Z,98794.56
2022-10-13T05:49:04.023Z,98794.59
2022-10-13T05:51:54.632Z,98784.94
2022-10-13T05:54:55.089Z,98788.78
2022-10-13T05:57:32.335Z,98796.19
2022-10-13T06:00:08.662Z,98794.78
2022-10-13T06:02:59.763Z,98794.25
2022-10-13T06:05:28.057Z,98785.31
2022-10-13T06:07:55.833Z,98778.97
2022-10-13T06:10:23.288Z,98776.75
2022-10-13T06:12:49.770Z,98780.22
2022-10-13T06:15:16.954Z,98771.22
2022-10-13T06:17:43.608Z,98777.84
2022-10-13T06:20:10.837Z,98769.81
2022-10-13T06:22:39.015Z,98769.88
2022-10-13T06:25:07.803Z,98757.63
2022-10-13T06:27:34.580Z,98758.69
2022-10-13T06:30:01.158Z,98764.97
2022-10-13T06:32:27.678Z,98763.72
2022-10-13T06:34:54.882Z,98766.84
2022-10-13T06:37:26.976Z,98772.41
2022-10-13T06:39:53.694Z,98768.38
2022-10-13T06:42:20.427Z,98766.50
2022-10-13T06:44:47.179Z,98775.84
2022-10-13T06:47:13.660Z,98776.75
2022-10-13T06:49:40.135Z,98792.13
2022-10-13T06:52:06.690Z,98783.34
2022-10-13T06:54:33.258Z,98756.50
2022-10-13T06:56:59.701Z,98778.09
2022-10-13T06:59:27.618Z,98766.72
2022-10-13T07:01:54.487Z,98765.38
2022-10-13T07:04:20.932Z,98769.09
2022-10-13T07:06:47.385Z,98758.41
2022-10-13T07:09:14.127Z,98755.25
2022-10-13T07:11:45.359Z,98749.25
2022-10-13T07:14:12.837Z,98762.69
2022-10-13T07:16:39.704Z,98775.06
2022-10-13T07:19:06.184Z,98777.25
2022-10-13T07:21:32.679Z,98760.91
2022-10-13T07:23:59.163Z,98760.63
2022-10-13T07:26:25.626Z,98753.19
2022-10-13T07:28:52.942Z,98757.47
2022-10-13T07:31:21.137Z,98762.56
2022-10-13T07:33:51.441Z,98775.69
2022-10-13T07:36:19.077Z,98767.59
2022-10-13T07:38:46.492Z,98765.84
2022-10-13T07:41:14.233Z,98759.53
2022-10-13T07:43:41.837Z,98767.91
2022-10-13T07:46:08.841Z,98774.25
2022-10-13T07:48:36.188Z,98767.59
2022-10-13T07:51:08.662Z,98770.41
2022-10-13T07:53:35.638Z,98771.53
2022-10-13T07:56:04.758Z,98770.63
2022-10-13T07:58:31.526Z,98770.41
2022-10-13T08:01:00.292Z,98776.06
2022-10-13T08:03:28.621Z,98773.31
2022-10-13T08:05:58.298Z,98783.09
2022-10-13T08:08:24.981Z,98767.31
2022-10-13T08:10:51.562Z,98779.50
2022-10-13T08:13:18.159Z,98768.63
2022-10-13T08:15:46.385Z,98773.72
2022-10-13T08:18:14.816Z,98765.28
2022-10-13T08:20:44.088Z,98767.81
2022-10-13T08:23:12.700Z,98768.97
2022-10-13T08:25:41.590Z,98768.25
2022-10-13T08:28:21.759Z,98767.16
2022-10-13T08:30:50.462Z,98765.03
2022-10-13T08:33:17.223Z,98766.06
2022-10-13T08:35:43.670Z,98762.84
2022-10-13T08:38:10.250Z,98766.34
2022-10-13T08:40:38.771Z,98757.41
2022-10-13T08:43:08.486Z,98752.69
2022-10-13T08:45:41.397Z,98748.31
2022-10-13T08:48:37.184Z,98743.38
2022-10-13T08:51:07.582Z,98749.84
2022-10-13T08:53:39.846Z,98750.94
2022-10-13T08:56:22.873Z,98747.34
2022-10-13T08:58:51.480Z,98729.53
2022-10-13T09:01:49.274Z,98725.94
2022-10-13T09:04:36.345Z,98731.97
2022-10-13T09:07:10.541Z,98732.81
2022-10-13T09:09:38.611Z,98727.97
2022-10-13T09:12:06.723Z,98714.34
2022-10-13T09:14:37.563Z,98721.22
2022-10-13T09:17:26.348Z,98726.41
2022-10-13T09:20:20.913Z,98724.34
2022-10-13T09:23:26.234Z,98726.69
2022-10-13T09:25:53.971Z,98730.03
2022-10-13T09:28:29.093Z,98726.00
2022-10-13T09:31:17.085Z,98734.22
2022-10-13T09:33:45.320Z,98732.97
2022-10-13T09:36:15.566Z,98725.56
2022-10-13T09:39:05.120Z,98727.53
2022-10-13T09:41:33.038Z,98715.16
2022-10-13T09:44:11.210Z,98723.50
2022-10-13T09:46:52.723Z,98724.78
2022-10-13T09:49:37.245Z,98712.69
2022-10-13T09:52:19.566Z,98718.59
2022-10-13T09:54:49.958Z,98712.38
2022-10-13T09:57:28.571Z,98705.66
2022-10-13T10:00:14.416Z,98707.75
2022-10-13T10:02:52.990Z,98707.19
2022-10-13T10:05:25.421Z,98710.34
2022-10-13T10:07:52.804Z,98710.66
2022-10-13T10:10:34.699Z,98706.84
2022-10-13T10:13:02.928Z,98703.53
2022-10-13T10:15:56.492Z,98702.59
2022-10-13T10:18:48.210Z,98705.28
2022-10-13T10:21:45.660Z,98698.50
2022-10-13T10:27:45.700Z,98692.84
2022-10-13T10:30:19.389Z,98687.66
2022-10-13T10:33:10.920Z,98681.84
2022-10-13T10:35:55.539Z,98685.66
2022-10-13T10:38:27.630Z,98683.97
2022-10-13T10:41:20.426Z,98679.59
2022-10-13T10:44:02.818Z,98678.84
2022-10-13T10:46:36.534Z,98680.72
2022-10-13T10:49:19.803Z,98681.06
2022-10-13T10:51:46.882Z,98677.78
2022-10-13T10:54:33.798Z,98670.53
2022-10-13T10:57:25.193Z,98666.06
2022-10-13T11:02:59.899Z,98664.19
2022-10-13T11:05:56.819Z,98652.47
2022-10-13T11:08:49.235Z,98651.91
2022-10-13T11:11:34.853Z,98647.19
2022-10-13T11:14:06.754Z,98645.84
2022-10-13T11:16:39.423Z,98637.34
2022-10-13T11:19:31.989Z,98631.06
2022-10-13T11:21:58.354Z,98635.59
2022-10-13T11:24:33.722Z,98628.31
2022-10-13T11:27:10.499Z,98629.03
2022-10-13T11:29:49.039Z,98619.19
2022-10-13T11:32:27.643Z,98613.31
2022-10-13T11:35:05.945Z,98602.69
2022-10-13T11:38:07.581Z,98601.19
2022-10-13T11:41:03.824Z,98603.19
2022-10-13T11:43:57.823Z,98595.31
2022-10-13T11:46:46.659Z,98587.44
2022-10-13T11:49:52.570Z,98587.56
2022-10-13T11:53:06.773Z,98589.50
2022-10-13T11:55:56.661Z,98582.97
2022-10-13T11:58:31.817Z,98588.28
2022-10-13T12:01:07.287Z,98590.66
2022-10-13T12:03:37.988Z,98582.13
2022-10-13T12:06:34.328Z,98593.59
2022-10-13T12:09:17.564Z,98588.06
2022-10-13T12:11:44.956Z,98588.31
2022-10-13T12:14:50.543Z,98583.84
2022-10-13T12:17:26.185Z,98589.03
2022-10-13T12:20:00.353Z,98583.03
2022-10-13T12:22:28.336Z,98578.16
2022-10-13T12:25:05.282Z,98574.50
2022-10-13T12:27:46.648Z,98578.44
2022-10-13T12:30:36.167Z,98577.03
2022-10-13T12:33:20.615Z,98572.41
2022-10-13T12:35:47.056Z,98571.31
2022-10-13T12:38:22.277Z,98564.59
2022-10-13T12:40:51.643Z,98562.63
2022-10-13T12:43:27.619Z,98560.66
2022-10-13T12:45:54.386Z,98565.69
2022-10-13T12:48:38.320Z,98566.38
2022-10-13T12:51:25.696Z,98568.34
2022-10-13T12:53:52.318Z,98570.03
2022-10-13T12:56:28.422Z,98564.31
2022-10-13T12:58:56.170Z,98569.91
2022-10-13T13:01:30.682Z,98563.59
2022-10-13T13:04:16.530Z,98572.69
2022-10-13T13:06:59.443Z,98567.94
2022-10-13T13:09:38.841Z,98562.34
2022-10-13T13:12:08.184Z,98560.81
2022-10-13T13:14:51.177Z,98569.91
2022-10-13T13:17:27.899Z,98571.56
2022-10-13T13:20:31.678Z,98572.97
2022-10-13T13:22:58.923Z,98574.38
2022-10-13T13:25:25.945Z,98568.22
2022-10-13T13:27:53.021Z,98573.53
2022-10-13T13:30:23.018Z,98573.41
2022-10-13T13:32:50.396Z,98561.53
2022-10-13T13:35:17.418Z,98565.28
2022-10-13T13:37:50.394Z,98565.44
2022-10-13T13:40:20.907Z,98566.25
2022-10-13T13:42:48.567Z,98559.69
2022-10-13T13:45:17.131Z,98548.63
2022-10-13T13:47:44.066Z,98553.38
2022-10-13T13:50:26.198Z,98548.63
2022-10-13T13:52:52.844Z,98541.34
2022-10-13T13:55:19.632Z,98541.34
2022-10-13T13:57:46.092Z,98538.16
2022-10-13T14:00:16.402Z,98529.78
2022-10-13T14:02:44.034Z,98528.53
2022-10-13T14:05:12.406Z,98524.34
2022-10-13T14:07:40.002Z,98531.31
2022-10-13T14:10:08.613Z,98525.31
2022-10-13T14:12:35.825Z,98528.38
2022-10-13T14:15:02.468Z,98528.78
2022-10-13T14:17:30.157Z,98525.28
2022-10-13T14:19:56.627Z,98534.38
2022-10-13T14:22:23.498Z,98530.59
2022-10-13T14:24:52.986Z,98524.88
2022-10-13T14:27:19.469Z,98528.25
2022-10-13T14:29:45.992Z,98523.63
2022-10-13T14:32:12.559Z,98523.78
2022-10-13T14:34:39.010Z,98521.78
2022-10-13T14:37:05.608Z,98519.03
2022-10-13T14:39:32.077Z,98512.56
2022-10-13T14:41:58.667Z,98510.59
2022-10-13T14:44:25.316Z,98510.59
2022-10-13T14:46:51.759Z,98513.38
2022-10-13T14:49:18.274Z,98508.00
2022-10-13T14:51:44.832Z,98505.75
2022-10-13T14:54:11.330Z,98501.69
2022-10-13T14:56:38.016Z,98514.69
2022-10-13T14:59:07.176Z,98503.53
2022-10-13T15:01:34.350Z,98510.47
2022-10-13T15:04:02.830Z,98512.13
2022-10-13T15:06:29.656Z,98520.94
2022-10-13T15:08:57.102Z,98517.00
2022-10-13T15:11:25.548Z,98513.75
2022-10-13T15:13:53.755Z,98513.47
2022-10-13T15:16:23.952Z,98504.47
2022-10-13T15:18:51.016Z,98504.47
2022-10-13T15:21:18.571Z,98507.34
2022-10-13T15:23:45.788Z,98512.66
2022-10-13T15:26:15.138Z,98502.47
2022-10-13T15:28:45.187Z,98505.13
2022-10-13T15:31:13.263Z,98507.03
2022-10-13T15:33:44.779Z,98508.09
2022-10-13T15:36:11.273Z,98498.81
2022-10-13T15:38:37.760Z,98503.09
2022-10-13T15:41:05.790Z,98501.28
2022-10-13T15:43:32.794Z,98515.75
2022-10-13T15:46:10.031Z,98508.38
2022-10-13T15:48:36.585Z,98508.50
2022-10-13T15:51:13.693Z,98508.25
2022-10-13T15:53:40.406Z,98512.75
2022-10-13T15:56:08.668Z,98507.91
2022-10-13T15:58:35.904Z,98510.09
2022-10-13T16:01:08.829Z,98510.06
2022-10-13T16:03:36.367Z,98507.81
2022-10-13T16:06:06.138Z,98505.41
2022-10-13T16:08:35.749Z,98503.75
2022-10-13T16:11:08.697Z,98504.00
2022-10-13T16:13:35.181Z,98502.41
2022-10-13T16:16:01.838Z,98505.56
2022-10-13T16:18:31.510Z,98499.53
2022-10-13T16:20:58.475Z,98496.03
2022-10-13T16:23:26.183Z,98500.72
2022-10-13T16:25:53.176Z,98500.16
2022-10-13T16:28:19.731Z,98496.09
2022-10-13T16:30:46.359Z,98493.09
2022-10-13T16:33:12.947Z,98499.88
2022-10-13T16:35:39.715Z,98492.81
2022-10-13T16:38:06.240Z,98497.72
2022-10-13T16:40:32.807Z,98494.91
2022-10-13T16:42:59.327Z,98498.28
2022-10-13T16:45:41.299Z,98491.28
2022-10-13T16:48:12.716Z,98494.97
2022-10-13T16:50:39.160Z,98499.56
2022-10-13T16:53:05.619Z,98495.75
2022-10-13T16:55:32.179Z,98498.16
2022-10-13T16:57:58.619Z,98486.59
2022-10-13T17:00:25.146Z,98489.03
2022-10-13T17:02:51.700Z,98488.31
2022-10-13T17:05:18.122Z,98487.63
2022-10-13T17:07:44.560Z,98492.91
2022-10-13T17:10:11.006Z,98489.09
2022-10-13T17:12:37.447Z,98495.84
2022-10-13T17:15:04.227Z,98499.03
2022-10-13T17:17:30.737Z,98492.84
2022-10-13T17:19:57.193Z,98496.63
2022-10-13T17:22:23.620Z,98494.28
2022-10-13T17:24:50.130Z,98495.84
2022-10-13T17:27:16.745Z,98494.66
2022-10-13T17:29:43.375Z,98499.13
2022-10-13T17:32:09.839Z,98497.66
2022-10-13T17:34:36.595Z,98492.84
2022-10-13T17:37:05.198Z,98497.59
2022-10-13T17:39:31.664Z,98504.06
2022-10-13T17:41:58.189Z,98501.19
2022-10-13T17:44:24.890Z,98493.75
2022-10-13T17:46:51.409Z,98493.75
2022-10-13T17:49:18.164Z,98494.00
2022-10-13T17:51:45.459Z,98486.31
2022-10-13T17:54:15.983Z,98486.22
2022-10-13T17:56:43.871Z,98498.72
2022-10-13T17:59:10.625Z,98491.53
2022-10-13T18:01:38.129Z,98490.69
2022-10-13T18:04:17.735Z,98491.88
2022-10-13T18:06:44.973Z,98486.59
2022-10-13T18:09:15.925Z,98486.59
2022-10-13T18:11:49.883Z,98493.78
2022-10-13T18:14:22.809Z,98492.59
2022-10-13T18:16:51.671Z,98496.91
2022-10-13T18:19:18.941Z,98494.78
2022-10-13T18:21:45.599Z,98486.72
2022-10-13T18:24:12.650Z,98486.72
2022-10-13T18:26:39.879Z,98481.56
2022-10-13T18:29:08.969Z,98485.50
2022-10-13T18:31:37.925Z,98482.88
2022-10-13T18:34:10.863Z,98486.13
2022-10-13T18:36:44.841Z,98488.31
2022-10-13T18:39:15.279Z,98487.09
2022-10-13T18:41:42.497Z,98489.75
2022-10-13T18:44:09.562Z,98490.59
2022-10-13T18:46:38.089Z,98489.88
2022-10-13T18:49:07.283Z,98489.50
2022-10-13T18:51:36.351Z,98485.53
2022-10-13T18:54:05.034Z,98486.13
2022-10-13T18:56:33.201Z,98493.59
2022-10-13T18:59:01.799Z,98495.03
2022-10-13T19:01:33.051Z,98495.28
2022-10-13T19:04:00.231Z,98497.09
2022-10-13T19:06:30.272Z,98495.03
2022-10-13T19:09:17.517Z,98487.34
2022-10-13T19:11:44.334Z,98483.47
2022-10-13T19:14:12.986Z,98491.03
2022-10-13T19:16:42.141Z,98496.84
2022-10-13T19:19:09.100Z,98490.59
2022-10-13T19:21:38.534Z,98496.00
2022-10-13T19:24:06.269Z,98489.63
2022-10-13T19:26:35.159Z,98494.53
2022-10-13T19:29:10.583Z,98490.22
2022-10-13T19:31:39.846Z,98487.19
2022-10-13T19:34:06.308Z,98482.47
2022-10-13T19:36:39.125Z,98480.44
2022-10-13T19:39:23.261Z,98483.22
2022-10-13T19:41:51.963Z,98480.34
2022-10-13T19:44:19.895Z,98480.97
2022-10-13T19:46:47.691Z,98484.31
2022-10-13T19:49:17.667Z,98487.81
2022-10-13T19:51:45.539Z,98488.06
2022-10-13T19:54:13.423Z,98483.09
2022-10-13T19:56:39.962Z,98491.19
2022-10-13T19:59:06.456Z,98499.13
2022-10-13T20:01:40.978Z,98496.00
2022-10-13T20:04:08.961Z,98495.03
2022-10-13T20:06:36.396Z,98494.78
2022-10-13T20:09:04.452Z,98501.53
2022-10-13T20:11:30.972Z,98502.13
2022-10-13T20:13:57.491Z,98509.91
2022-10-13T20:16:25.387Z,98503.94
2022-10-13T20:18:56.191Z,98507.28
2022-10-13T20:21:24.316Z,98509.94
2022-10-13T20:23:52.006Z,98502.13
2022-10-13T20:26:19.718Z,98503.69
2022-10-13T20:28:49.183Z,98498.38
2022-10-13T20:31:19.410Z,98512.59
2022-10-13T20:33:47.006Z,98508.97
2022-10-13T20:36:17.741Z,98509.56
2022-10-13T20:38:44.562Z,98506.28
2022-10-13T20:41:26.943Z,98507.66
2022-10-13T20:43:57.366Z,98507.13
2022-10-13T20:46:24.875Z,98507.50
2022-10-13T20:51:41.927Z,98507.03
2022-10-13T20:54:10.756Z,98512.78
2022-10-13T20:56:37.591Z,98508.56
2022-10-13T20:59:07.555Z,98514.13
2022-10-13T21:01:35.385Z,98514.13
2022-10-13T21:04:01.858Z,98509.91
2022-10-13T21:06:28.590Z,98510.78
2022-10-13T21:08:55.242Z,98508.00
2022-10-13T21:11:23.784Z,98507.41
2022-10-13T21:13:52.021Z,98508.50
2022-10-13T21:16:28.309Z,98509.59
2022-10-13T21:18:57.299Z,98517.41
2022-10-13T21:21:29.599Z,98520.88
2022-10-13T21:23:59.775Z,98515.81
2022-10-13T21:26:29.452Z,98518.97
2022-10-13T21:28:56.714Z,98514.97
2022-10-13T21:31:25.067Z,98521.72
2022-10-13T21:33:51.921Z,98526.53
2022-10-13T21:36:22.067Z,98515.13
2022-10-13T21:38:53.299Z,98510.44
2022-10-13T21:41:20.999Z,98505.38
2022-10-13T21:43:47.518Z,98511.16
2022-10-13T21:46:18.634Z,98515.97
2022-10-13T21:48:47.565Z,98518.59
2022-10-13T21:51:24.488Z,98518.22
2022-10-13T21:54:00.819Z,98517.28
2022-10-13T21:56:28.599Z,98510.06
2022-10-13T21:58:55.985Z,98512.34
2022-10-13T22:01:24.487Z,98511.03
2022-10-13T22:03:57.889Z,98511.88
2022-10-13T22:06:25.877Z,98520.50
2022-10-13T22:08:55.382Z,98519.31
2022-10-13T22:11:25.321Z,98507.53
2022-10-13T22:13:52.253Z,98505.84
2022-10-13T22:16:23.167Z,98506.00
2022-10-13T22:18:55.475Z,98512.59
2022-10-13T22:21:27.818Z,98498.66
2022-10-13T22:24:06.212Z,98502.75
2022-10-13T22:26:36.820Z,98500.19
2022-10-13T22:29:05.926Z,98505.84
2022-10-13T22:31:33.268Z,98496.31
2022-10-13T22:34:01.352Z,98508.03
2022-10-13T22:36:28.614Z,98502.75
2022-10-13T22:39:00.283Z,98506.38
2022-10-13T22:41:26.886Z,98500.56
2022-10-13T22:43:57.070Z,98500.25
2022-10-13T22:46:31.049Z,98505.88
2022-10-13T22:48:58.405Z,98502.06
2022-10-13T22:51:28.431Z,98501.44
2022-10-13T22:53:56.923Z,98504.78
2022-10-13T22:56:27.239Z,98496.50
2022-10-13T22:58:57.989Z,98496.50
2022-10-13T23:01:25.685Z,98498.06
2022-10-13T23:03:56.366Z,98494.34
2022-10-13T23:06:27.444Z,98498.91
2022-10-13T23:08:55.061Z,98493.84
2022-10-13T23:11:22.551Z,98499.50
2022-10-13T23:13:49.238Z,98493.59
2022-10-13T23:16:23.718Z,98494.34
2022-10-13T23:18:51.360Z,98492.84
2022-10-13T23:21:20.958Z,98485.28
2022-10-13T23:23:47.997Z,98484.22
2022-10-13T23:26:17.073Z,98482.56
2022-10-13T23:28:44.475Z,98481.22
2022-10-13T23:31:15.631Z,98479.63
2022-10-13T23:33:42.459Z,98482.53
2022-10-13T23:36:14.579Z,98482.19
2022-10-13T23:38:41.050Z,98483.03
2022-10-13T23:41:13.930Z,98476.31
2022-10-13T23:43:41.509Z,98471.13
2022-10-13T23:46:10.584Z,98473.41
2022-10-13T23:48:37.954Z,98469.66
2022-10-13T23:51:17.651Z,98463.16
2022-10-13T23:53:44.888Z,98467.38
2022-10-13T23:56:12.815Z,98466.31
2022-10-13T23:58:42.210Z,98467.75
